Time;durP1;ratioP1;P1;durP2;ratioP2;P2;SDS_P1;SDS_P2;PMS_P1;PMS_P2;Temp;Humidity;BMP_temperature;BMP_pressure;BME280_temperature;BME280_humidity;BME280_pressure;Samples;Min_cycle;Max_cycle;Signal;HPM_P1;HPM_P2
2023/09/16 00:00:08;;;;;;;5.22;1.65;;;;;;;11.72;100.00;100947.69;5068491;28;20053;-43
2023/09/16 00:02:35;;;;;;;1.50;1.40;;;;;;;11.71;100.00;100941.31;5064515;28;20088;-46
2023/09/16 00:05:03;;;;;;;3.78;1.70;;;;;;;11.71;100.00;100946.88;5049568;28;20075;-44
2023/09/16 00:07:31;;;;;;;5.03;2.00;;;;;;;11.71;100.00;100937.75;5055144;28;20048;-44
2023/09/16 00:09:58;;;;;;;6.50;2.30;;;;;;;11.73;100.00;100941.00;5053709;28;20067;-43
2023/09/16 00:12:25;;;;;;;7.40;2.30;;;;;;;11.74;100.00;100937.03;5053510;28;20049;-45
2023/09/16 00:14:52;;;;;;;3.08;2.00;;;;;;;11.72;100.00;100931.03;5054060;28;20045;-45
2023/09/16 00:17:19;;;;;;;5.50;1.80;;;;;;;11.71;100.00;100946.06;5054452;28;20049;-48
2023/09/16 00:19:46;;;;;;;5.85;2.65;;;;;;;11.71;100.00;100937.75;5053898;28;20067;-45
2023/09/16 00:22:13;;;;;;;5.35;1.52;;;;;;;11.69;100.00;100938.09;5053309;28;20126;-43
2023/09/16 00:24:40;;;;;;;3.58;1.85;;;;;;;11.70;100.00;100936.13;5054117;28;20045;-43
2023/09/16 00:27:07;;;;;;;3.47;1.13;;;;;;;11.69;100.00;100926.19;5054532;28;20136;-45
2023/09/16 00:29:34;;;;;;;5.60;1.67;;;;;;;11.68;100.00;100932.84;5053072;28;20091;-43
2023/09/16 00:32:03;;;;;;;2.20;1.20;;;;;;;11.69;100.00;100929.78;5054008;28;20045;-46
2023/09/16 00:34:31;;;;;;;5.60;1.52;;;;;;;11.71;100.00;100941.31;5051985;28;20136;-47
2023/09/16 00:36:58;;;;;;;6.32;1.15;;;;;;;11.73;100.00;100939.00;5050993;28;20071;-43
2023/09/16 00:39:27;;;;;;;4.95;1.23;;;;;;;11.74;100.00;100931.50;5050783;28;20056;-46
2023/09/16 00:41:54;;;;;;;4.85;1.15;;;;;;;11.73;100.00;100939.00;5052928;28;20041;-46
2023/09/16 00:44:21;;;;;;;1.48;0.70;;;;;;;11.75;100.00;100938.69;5052105;28;20045;-43
2023/09/16 00:46:48;;;;;;;5.18;1.55;;;;;;;11.75;100.00;100953.34;5039696;28;20519;-44
2023/09/16 00:49:15;;;;;;;3.83;1.88;;;;;;;11.76;100.00;100949.41;5051683;28;20048;-45
2023/09/16 00:51:44;;;;;;;5.15;1.38;;;;;;;11.76;100.00;100943.84;5052360;28;20564;-44
2023/09/16 00:54:13;;;;;;;5.85;1.20;;;;;;;11.77;100.00;100951.03;5042714;28;20053;-44
2023/09/16 00:56:40;;;;;;;1.55;1.17;;;;;;;11.77;100.00;100950.22;5035194;28;20564;-44
2023/09/16 00:59:10;;;;;;;3.80;0.98;;;;;;;11.77;100.00;100948.25;5051240;28;20707;-43
2023/09/16 01:01:38;;;;;;;4.05;1.15;;;;;;;11.77;100.00;100948.25;5053475;28;20045;-44
2023/09/16 01:04:07;;;;;;;1.85;0.85;;;;;;;11.76;100.00;100952.19;5068488;28;20110;-44
2023/09/16 01:06:34;;;;;;;5.28;1.60;;;;;;;11.77;100.00;100958.53;5073814;28;20517;-46
2023/09/16 01:09:01;;;;;;;3.38;0.90;;;;;;;11.76;100.00;100943.03;5072205;28;20048;-43
2023/09/16 01:11:28;;;;;;;7.35;1.15;;;;;;;11.77;100.00;100956.59;5073421;28;20080;-44
2023/09/16 01:13:55;;;;;;;5.97;1.77;;;;;;;11.76;100.00;100948.59;5072373;28;20060;-43
2023/09/16 01:16:46;;;;;;;5.25;1.30;;;;;;;11.74;100.00;100957.28;5073823;28;20113;-44
2023/09/16 01:19:35;;;;;;;3.65;1.10;;;;;;;11.73;100.00;100949.31;5072578;28;20132;-46
2023/09/16 01:22:02;;;;;;;5.78;1.27;;;;;;;11.74;100.00;100956.47;5058324;28;20036;-46
2023/09/16 01:24:29;;;;;;;5.97;1.10;;;;;;;11.72;100.00;100958.78;5073959;28;20036;-44
2023/09/16 01:26:55;;;;;;;1.95;0.70;;;;;;;11.70;100.00;100948.03;5073485;28;20044;-44
2023/09/16 01:29:23;;;;;;;7.05;2.33;;;;;;;11.70;100.00;100955.56;5072598;28;20043;-43
2023/09/16 01:31:50;;;;;;;4.18;0.80;;;;;;;11.68;100.00;100946.72;5072831;28;20052;-44
2023/09/16 01:34:32;;;;;;;2.92;1.05;;;;;;;11.68;100.00;100949.50;5066976;28;20398;-44
2023/09/16 01:37:00;;;;;;;6.47;1.10;;;;;;;11.70;100.00;100944.47;5070918;28;20086;-44
2023/09/16 01:39:29;;;;;;;4.18;0.98;;;;;;;11.70;100.00;100941.69;5063216;28;20041;-43
2023/09/16 01:41:59;;;;;;;8.93;2.33;;;;;;;11.69;100.00;100945.59;5069229;28;20052;-44
2023/09/16 01:44:25;;;;;;;6.28;1.13;;;;;;;11.69;100.00;100948.38;5060690;28;20045;-44
2023/09/16 01:46:56;;;;;;;7.30;0.90;;;;;;;11.68;100.00;100936.44;5058404;28;20036;-45
2023/09/16 01:49:23;;;;;;;5.03;0.93;;;;;;;11.67;100.00;100932.06;5070508;28;20139;-45
2023/09/16 01:51:50;;;;;;;5.68;1.08;;;;;;;11.66;100.00;100922.13;5069539;28;20131;-44
2023/09/16 01:54:17;;;;;;;7.88;1.27;;;;;;;11.66;100.00;100932.41;5067123;28;20497;-45
2023/09/16 01:56:45;;;;;;;4.00;1.33;;;;;;;11.66;100.00;100935.16;5058963;28;20044;-44
2023/09/16 01:59:11;;;;;;;3.13;0.75;;;;;;;11.67;100.00;100934.03;5071490;28;20044;-46
2023/09/16 02:01:38;;;;;;;1.85;0.90;;;;;;;11.68;100.00;100935.63;5059847;28;20098;-43
2023/09/16 02:04:06;;;;;;;6.80;1.25;;;;;;;11.67;100.00;100942.34;5071764;28;20076;-44
2023/09/16 02:06:34;;;;;;;1.52;0.77;;;;;;;11.66;100.00;100954.59;5071519;28;20044;-43
2023/09/16 02:09:00;;;;;;;3.22;0.60;;;;;;;11.70;100.00;100958.31;5053664;28;20094;-44
2023/09/16 02:11:27;;;;;;;5.53;1.52;;;;;;;11.70;100.00;100961.09;5071946;28;20518;-43
2023/09/16 02:13:54;;;;;;;9.20;1.13;;;;;;;11.69;100.00;100959.47;5072516;28;20045;-45
2023/09/16 02:16:21;;;;;;;6.25;1.10;;;;;;;11.69;100.00;100951.16;5072847;28;20056;-44
2023/09/16 02:18:47;;;;;;;5.15;0.90;;;;;;;11.71;100.00;100951.59;5072240;28;20048;-44
2023/09/16 02:21:15;;;;;;;3.55;1.13;;;;;;;11.69;100.00;100942.84;5070724;28;20048;-44
2023/09/16 02:23:42;;;;;;;9.20;1.67;;;;;;;11.69;100.00;100942.84;5062318;28;20067;-43
2023/09/16 02:26:08;;;;;;;9.20;1.67;;;;;;;11.68;100.00;100939.22;5050301;28;20052;-43
2023/09/16 02:28:35;;;;;;;3.90;1.50;;;;;;;11.67;100.00;100947.91;5063630;28;20128;-43
2023/09/16 02:31:02;;;;;;;8.65;3.05;;;;;;;11.68;100.00;100955.03;5064392;28;20047;-43
2023/09/16 02:33:29;;;;;;;3.92;1.00;;;;;;;11.66;100.00;100949.03;5077412;28;20048;-44
2023/09/16 02:35:58;;;;;;;5.15;1.02;;;;;;;11.67;100.00;100951.47;5065120;28;20088;-43
2023/09/16 02:38:26;;;;;;;5.32;1.08;;;;;;;11.66;100.00;100949.84;5061231;28;20135;-44
2023/09/16 02:40:52;;;;;;;4.13;0.77;;;;;;;11.65;100.00;100961.31;5067520;28;20040;-46
2023/09/16 02:43:19;;;;;;;4.53;1.30;;;;;;;11.66;100.00;100954.59;5065415;28;20071;-43
2023/09/16 02:45:46;;;;;;;2.70;0.98;;;;;;;11.66;100.00;100957.34;5055804;28;20051;-44
2023/09/16 02:48:17;;;;;;;3.97;0.95;;;;;;;11.67;100.00;100956.22;5068537;28;20040;-43
2023/09/16 02:50:46;;;;;;;4.93;0.90;;;;;;;11.65;100.00;100953.78;5070005;28;20063;-43
2023/09/16 02:53:13;;;;;;;3.25;0.90;;;;;;;11.66;100.00;100954.59;5069591;28;20516;-45
2023/09/16 02:55:40;;;;;;;3.22;1.10;;;;;;;11.66;100.00;100955.41;5070916;28;20123;-44
2023/09/16 02:58:07;;;;;;;5.80;1.42;;;;;;;11.67;100.00;100953.44;5067414;28;20090;-44
2023/09/16 03:00:37;;;;;;;7.82;1.50;;;;;;;11.68;100.00;100955.03;5162262;22;20068;31
2023/09/16 03:03:05;;;;;;;6.30;1.40;;;;;;;11.69;100.00;100951.16;4988540;28;20061;-45
2023/09/16 03:05:37;;;;;;;5.50;1.02;;;;;;;11.69;100.00;100953.94;4991571;28;20148;-45
2023/09/16 03:08:04;;;;;;;4.32;1.58;;;;;;;11.68;100.00;100957.81;4989413;28;20136;-48
2023/09/16 03:10:35;;;;;;;6.60;1.45;;;;;;;11.68;100.00;100952.25;4990557;28;20512;-45
2023/09/16 03:13:03;;;;;;;7.82;1.13;;;;;;;11.68;100.00;100950.31;4988855;28;20050;-44
2023/09/16 03:15:30;;;;;;;6.47;1.30;;;;;;;11.67;100.00;100951.47;4978868;28;20138;-45
2023/09/16 03:17:57;;;;;;;6.20;1.10;;;;;;;11.67;100.00;100954.25;4980579;28;20050;-46
2023/09/16 03:20:34;;;;;;;8.00;2.60;;;;;;;11.67;100.00;100951.47;4951339;28;21782;-47
2023/09/16 03:23:01;;;;;;;6.57;1.20;;;;;;;11.70;100.00;100963.88;4951264;28;20062;-48
2023/09/16 03:25:28;;;;;;;3.25;1.42;;;;;;;11.71;100.00;100957.97;4950896;28;21911;-45
2023/09/16 03:27:54;;;;;;;6.78;1.50;;;;;;;11.69;100.00;100965.84;4949233;28;20046;-47
2023/09/16 03:30:23;;;;;;;6.68;1.50;;;;;;;11.71;100.00;100968.25;4954738;28;20053;-46
2023/09/16 03:32:50;;;;;;;3.50;1.10;;;;;;;11.69;100.00;100976.94;4953510;28;20060;-46
2023/09/16 03:35:20;;;;;;;7.80;1.38;;;;;;;11.69;100.00;100965.03;4960702;28;20103;-45
2023/09/16 03:37:48;;;;;;;3.55;1.23;;;;;;;11.69;100.00;100971.38;4962836;28;20069;-46
2023/09/16 03:40:15;;;;;;;4.70;1.27;;;;;;;11.68;100.00;100964.19;4989986;28;20583;-45
2023/09/16 03:42:43;;;;;;;5.18;1.00;;;;;;;11.69;100.00;100965.03;4984019;28;20089;-45
2023/09/16 03:45:11;;;;;;;8.27;1.50;;;;;;;11.70;100.00;100967.47;4991444;28;20043;-45
2023/09/16 03:47:52;;;;;;;7.03;1.05;;;;;;;11.69;100.00;100967.78;4991605;28;20570;-45
2023/09/16 03:50:19;;;;;;;6.72;1.55;;;;;;;11.70;100.00;100977.75;5000309;28;20046;-46
2023/09/16 03:52:48;;;;;;;7.88;1.27;;;;;;;11.70;100.00;100972.19;4997120;28;20484;-44
2023/09/16 03:55:15;;;;;;;10.55;1.38;;;;;;;11.70;100.00;100972.19;4991602;28;20042;-45
2023/09/16 03:57:42;;;;;;;8.75;1.92;;;;;;;11.71;100.00;100973.78;4992001;28;20054;-45
2023/09/16 04:00:10;;;;;;;3.50;1.52;;;;;;;11.70;100.00;100970.25;4991915;28;20056;-45
2023/09/16 04:02:40;;;;;;;3.78;1.08;;;;;;;11.72;100.00;100967.09;4991563;28;20054;-45
2023/09/16 04:05:07;;;;;;;5.97;1.17;;;;;;;11.71;100.00;100971.03;4990586;28;20069;-45
2023/09/16 04:07:34;;;;;;;7.88;1.35;;;;;;;11.70;100.00;100978.56;4987993;28;20043;-45
2023/09/16 04:10:01;;;;;;;8.15;3.70;;;;;;;11.70;100.00;100977.75;4980725;28;20046;-47
2023/09/16 04:12:28;;;;;;;4.93;1.15;;;;;;;11.69;100.00;100965.03;4988432;28;20043;-45
2023/09/16 04:14:55;;;;;;;11.60;1.30;;;;;;;11.70;100.00;100977.75;4990221;28;20058;-45
2023/09/16 04:17:22;;;;;;;7.32;1.10;;;;;;;11.70;100.00;100977.75;4975835;28;20519;-45
2023/09/16 04:19:50;;;;;;;3.38;1.00;;;;;;;11.71;100.00;100976.56;4987453;28;20120;-45
2023/09/16 04:22:17;;;;;;;7.82;1.13;;;;;;;11.72;100.00;100980.97;4988801;28;20062;-45
2023/09/16 04:24:43;;;;;;;6.18;1.58;;;;;;;11.70;100.00;100984.09;4986310;28;20080;-46
2023/09/16 04:27:10;;;;;;;4.57;1.55;;;;;;;11.72;100.00;100978.19;4987526;28;20501;-45
2023/09/16 04:29:37;;;;;;;3.95;0.90;;;;;;;11.71;100.00;100984.88;5004086;28;20057;-47
2023/09/16 04:32:04;;;;;;;2.95;1.20;;;;;;;11.70;100.00;100980.53;4989662;28;20510;-45
2023/09/16 04:34:32;;;;;;;8.93;0.93;;;;;;;11.69;100.00;100976.13;4981990;28;20070;-45
2023/09/16 04:36:59;;;;;;;5.70;1.20;;;;;;;11.66;100.00;100977.59;4987674;28;20046;-45
2023/09/16 04:39:26;;;;;;;3.47;1.48;;;;;;;11.67;100.00;100975.63;4989476;28;20054;-45
2023/09/16 04:41:53;;;;;;;5.55;1.00;;;;;;;11.67;100.00;100978.41;4989328;28;20134;-45
2023/09/16 04:44:21;;;;;;;10.38;2.13;;;;;;;11.68;100.00;100980.00;4989096;28;20492;-48
2023/09/16 04:46:47;;;;;;;4.65;1.00;;;;;;;11.67;100.00;100981.19;4990173;28;20066;-46
2023/09/16 04:49:15;;;;;;;2.40;0.77;;;;;;;11.68;100.00;100966.94;4999520;28;20070;-45
2023/09/16 04:51:42;;;;;;;5.18;1.13;;;;;;;11.69;100.00;100978.88;4992153;28;20046;-46
2023/09/16 04:54:09;;;;;;;1.63;0.85;;;;;;;11.69;100.00;100981.66;4993646;28;20050;-47
2023/09/16 04:56:36;;;;;;;2.78;0.95;;;;;;;11.67;100.00;100986.72;4992536;28;20053;-44
2023/09/16 04:59:04;;;;;;;6.07;1.20;;;;;;;11.68;100.00;100991.09;4993106;28;20051;-45
2023/09/16 05:01:31;;;;;;;4.50;1.17;;;;;;;11.66;100.00;100993.41;4991063;28;20050;-45
2023/09/16 05:03:59;;;;;;;5.45;1.25;;;;;;;11.66;100.00;100993.41;4988686;28;20085;-44
2023/09/16 05:06:26;;;;;;;3.90;0.80;;;;;;;11.65;100.00;100991.81;4989292;28;20053;-44
2023/09/16 05:08:54;;;;;;;3.00;0.90;;;;;;;11.64;100.00;100991.00;4991872;28;20046;-44
2023/09/16 05:11:21;;;;;;;6.75;1.45;;;;;;;11.63;100.00;100990.19;4993606;28;20050;-44
2023/09/16 05:13:50;;;;;;;1.95;1.05;;;;;;;11.61;100.00;100981.41;4989592;28;20049;-44
2023/09/16 05:16:16;;;;;;;2.70;1.00;;;;;;;11.62;100.00;100988.56;4983906;28;20050;-45
2023/09/16 05:18:44;;;;;;;3.45;1.20;;;;;;;11.62;100.00;100988.56;4992224;28;20094;-45
2023/09/16 05:21:12;;;;;;;11.18;1.65;;;;;;;11.62;100.00;100999.66;4993702;28;20441;-44
2023/09/16 05:23:39;;;;;;;4.28;1.00;;;;;;;11.64;100.00;100993.78;4996622;28;20054;-44
2023/09/16 05:26:09;;;;;;;6.20;1.42;;;;;;;11.63;100.00;100990.19;4989485;28;20058;-44
2023/09/16 05:28:36;;;;;;;7.43;2.10;;;;;;;11.64;100.00;100991.00;4993337;28;20061;-44
2023/09/16 05:31:03;;;;;;;5.38;2.33;;;;;;;11.65;100.00;100992.59;4987925;28;20066;-44
2023/09/16 05:33:30;;;;;;;9.18;1.50;;;;;;;11.68;100.00;101004.97;4984582;28;20041;-44
2023/09/16 05:35:57;;;;;;;6.50;0.90;;;;;;;11.67;100.00;101006.13;4993663;28;20405;-44
2023/09/16 05:38:24;;;;;;;4.32;1.20;;;;;;;11.67;100.00;101006.13;4994440;28;20066;-44
2023/09/16 05:40:51;;;;;;;5.47;1.30;;;;;;;11.68;100.00;101016.06;4994411;28;20039;-44
2023/09/16 05:43:18;;;;;;;3.10;0.98;;;;;;;11.68;100.00;101011.31;4993663;28;20411;-44
2023/09/16 05:45:51;;;;;;;4.35;1.45;;;;;;;11.69;100.00;101009.41;4994015;28;20050;-44
2023/09/16 05:48:18;;;;;;;4.38;1.45;;;;;;;11.67;100.00;101006.13;4995452;28;20038;-44
2023/09/16 05:50:53;;;;;;;3.33;1.40;;;;;;;11.66;100.00;101007.28;5008807;28;20160;-44
2023/09/16 05:53:19;;;;;;;3.63;1.20;;;;;;;11.62;100.00;101010.75;4993288;28;20042;-45
2023/09/16 05:55:46;;;;;;;4.20;0.80;;;;;;;11.61;100.00;101020.22;4993494;28;20054;-45
2023/09/16 05:58:13;;;;;;;5.05;1.73;;;;;;;11.60;100.00;101018.59;4992516;28;20038;-45
2023/09/16 06:00:40;;;;;;;2.47;1.50;;;;;;;11.57;100.00;101016.50;4993753;28;20054;-44
2023/09/16 06:03:07;;;;;;;6.88;1.08;;;;;;;11.57;100.00;101018.47;4986272;28;20035;-45
2023/09/16 06:05:33;;;;;;;4.40;1.30;;;;;;;11.56;100.00;101009.38;4987665;28;20054;-44
2023/09/16 06:08:02;;;;;;;3.15;1.40;;;;;;;11.54;100.00;101014.44;4990010;28;20046;-44
2023/09/16 06:10:30;;;;;;;5.30;1.30;;;;;;;11.54;100.00;101019.97;4991156;28;20093;-44
2023/09/16 06:12:56;;;;;;;1.75;0.90;;;;;;;11.53;100.00;101017.56;4990589;28;20558;-44
2023/09/16 06:15:23;;;;;;;3.47;1.45;;;;;;;11.52;100.00;101024.25;4989612;28;20400;-44
2023/09/16 06:17:50;;;;;;;3.95;1.80;;;;;;;11.52;100.00;101027.84;4986683;28;20050;-45
2023/09/16 06:20:17;;;;;;;3.42;1.33;;;;;;;11.50;100.00;101035.69;4990108;28;20117;-46
2023/09/16 06:22:43;;;;;;;4.38;1.10;;;;;;;11.49;100.00;101031.28;4989960;28;20093;-44
2023/09/16 06:25:10;;;;;;;6.22;1.10;;;;;;;11.49;100.00;101028.50;4991083;28;20137;-44
2023/09/16 06:27:37;;;;;;;4.15;2.38;;;;;;;11.50;100.00;101030.16;4987316;28;20484;-44
2023/09/16 06:30:04;;;;;;;4.82;1.48;;;;;;;11.50;100.00;101030.16;4989459;28;20105;-45
2023/09/16 06:32:32;;;;;;;1.50;0.95;;;;;;;11.50;100.00;101032.09;4986440;28;20052;-44
2023/09/16 06:34:58;;;;;;;2.92;1.50;;;;;;;11.49;100.00;101039.59;4985787;28;20046;-46
2023/09/16 06:37:25;;;;;;;3.55;1.40;;;;;;;11.51;100.00;101044.81;4986232;28;20436;-45
2023/09/16 06:39:52;;;;;;;2.83;1.52;;;;;;;11.51;100.00;101048.41;4988616;28;20046;-45
2023/09/16 06:42:19;;;;;;;6.28;1.73;;;;;;;11.52;100.00;101047.25;4990312;28;20057;-45
2023/09/16 06:44:52;;;;;;;4.30;1.88;;;;;;;11.55;100.00;101054.06;4991940;28;20085;-44
2023/09/16 06:47:19;;;;;;;4.90;2.03;;;;;;;11.55;100.00;101059.59;4985884;28;20049;-44
2023/09/16 06:49:45;;;;;;;6.22;2.40;;;;;;;11.56;100.00;101050.97;4990077;28;20141;-45
2023/09/16 06:52:12;;;;;;;3.28;2.13;;;;;;;11.58;100.00;101059.75;4988759;28;20133;-45
2023/09/16 06:54:39;;;;;;;6.63;2.72;;;;;;;11.59;100.00;101047.50;4990968;28;20045;-44
2023/09/16 06:57:06;;;;;;;3.03;1.58;;;;;;;11.61;100.00;101055.47;4988044;28;20120;-45
2023/09/16 06:59:33;;;;;;;3.72;1.50;;;;;;;11.63;100.00;101051.19;4987666;28;20647;-45
2023/09/16 07:02:18;;;;;;;3.33;1.35;;;;;;;11.65;100.00;101061.94;4989595;28;20053;-46
2023/09/16 07:04:46;;;;;;;6.85;1.13;;;;;;;11.65;100.00;101061.94;4983280;28;20991;-44
2023/09/16 07:07:13;;;;;;;5.38;1.00;;;;;;;11.66;100.00;101059.97;4986512;28;20056;-44
2023/09/16 07:09:40;;;;;;;10.07;2.60;;;;;;;11.67;100.00;101067.16;4989458;28;20444;-45
2023/09/16 07:12:08;;;;;;;15.50;2.45;;;;;;;11.66;100.00;101065.53;4987283;28;20138;-45
2023/09/16 07:14:38;;;;;;;4.63;1.08;;;;;;;11.67;100.00;101058.81;4986334;28;20038;-44
2023/09/16 07:17:06;;;;;;;3.35;1.00;;;;;;;11.67;100.00;101067.97;4989730;28;20046;-44
2023/09/16 07:19:33;;;;;;;5.10;1.27;;;;;;;11.69;100.00;101070.41;4989547;28;20038;-45
2023/09/16 07:22:01;;;;;;;6.60;0.93;;;;;;;11.69;100.00;101065.69;4986989;28;20136;-44
2023/09/16 07:24:49;;;;;;;5.25;0.90;;;;;;;11.70;100.00;101066.50;4988648;28;20051;-45
2023/09/16 07:27:17;;;;;;;3.78;1.20;;;;;;;11.70;100.00;101072.84;4981435;28;20235;-46
2023/09/16 07:29:44;;;;;;;9.55;1.40;;;;;;;11.70;100.00;101072.84;4988865;28;20061;-45
2023/09/16 07:32:11;;;;;;;6.25;1.00;;;;;;;11.72;100.00;101065.00;4988438;28;20046;-45
2023/09/16 07:34:38;;;;;;;4.88;0.85;;;;;;;11.74;100.00;101064.63;4991260;28;20038;-45
2023/09/16 07:37:06;;;;;;;6.75;1.05;;;;;;;11.75;100.00;101069.03;4991700;28;20042;-46
2023/09/16 07:39:33;;;;;;;6.22;1.38;;;;;;;11.76;100.00;101065.91;4995231;28;20345;-47
2023/09/16 07:42:00;;;;;;;6.60;2.10;;;;;;;11.79;100.00;101061.63;4991584;28;20399;-45
2023/09/16 07:44:27;;;;;;;6.55;1.25;;;;;;;11.80;100.00;101066.03;4992185;28;20145;-46
2023/09/16 07:46:54;;;;;;;2.95;1.00;;;;;;;11.81;100.00;101073.22;4993166;28;20045;-47
2023/09/16 07:49:21;;;;;;;3.88;0.98;;;;;;;11.83;100.00;101068.13;4998265;28;20605;-45
2023/09/16 07:51:49;;;;;;;4.15;0.90;;;;;;;11.82;100.00;101072.03;4991300;28;20058;-45
2023/09/16 07:54:16;;;;;;;4.10;1.10;;;;;;;11.82;100.00;101069.28;4991571;28;20566;-45
2023/09/16 07:56:44;;;;;;;7.88;1.13;;;;;;;11.85;100.00;101058.31;4989449;28;20052;-44
2023/09/16 07:59:11;;;;;;;3.95;1.00;;;;;;;11.88;100.00;101059.56;4980522;28;20042;-44
2023/09/16 08:01:38;;;;;;;5.63;0.90;;;;;;;11.90;100.00;101073.91;4979376;28;20046;-47
2023/09/16 08:04:05;;;;;;;4.57;1.10;;;;;;;11.90;100.00;101080.25;4986707;28;20058;-44
2023/09/16 08:06:33;;;;;;;5.57;1.20;;;;;;;11.91;100.00;101083.84;4984382;28;20053;-44
2023/09/16 08:09:00;;;;;;;5.93;0.95;;;;;;;11.93;100.00;101084.31;4985830;28;20049;-45
2023/09/16 08:11:28;;;;;;;5.60;0.93;;;;;;;11.93;100.00;101092.63;4979985;28;20070;-45
2023/09/16 08:13:55;;;;;;;5.00;1.23;;;;;;;11.92;100.00;101093.78;4995914;28;20117;-45
2023/09/16 08:16:22;;;;;;;7.50;1.00;;;;;;;11.94;100.00;101094.25;4991330;28;20078;-45
2023/09/16 08:18:50;;;;;;;1.98;0.82;;;;;;;11.93;100.00;101098.19;4991335;28;20142;-46
2023/09/16 08:21:17;;;;;;;9.52;2.03;;;;;;;11.93;100.00;101104.53;4994715;28;20080;-45
2023/09/16 08:23:44;;;;;;;3.60;0.90;;;;;;;11.96;100.00;101103.03;4995159;28;20401;-44
2023/09/16 08:26:12;;;;;;;3.85;1.15;;;;;;;11.97;100.00;101115.75;4995315;28;20141;-45
2023/09/16 08:28:39;;;;;;;4.28;1.70;;;;;;;11.97;100.00;101112.97;4995717;28;20058;-45
2023/09/16 08:31:06;;;;;;;5.00;1.27;;;;;;;11.97;100.00;101105.47;4995677;28;20056;-45
2023/09/16 08:33:34;;;;;;;2.70;0.80;;;;;;;11.99;100.00;101102.34;4995256;28;20073;-44
2023/09/16 08:36:01;;;;;;;3.83;0.98;;;;;;;12.00;100.00;101098.41;4994792;28;20138;-46
2023/09/16 08:38:28;;;;;;;5.75;1.42;;;;;;;12.03;100.00;101097.72;4994666;28;20073;-45
2023/09/16 08:41:17;;;;;;;3.35;0.90;;;;;;;12.04;100.00;101110.44;4994797;28;20411;-45
2023/09/16 08:43:47;;;;;;;4.22;0.82;;;;;;;12.06;100.00;101108.94;4994967;28;20499;-45
2023/09/16 08:46:17;;;;;;;8.98;1.10;;;;;;;12.09;100.00;101105.50;4995474;28;20082;-45
2023/09/16 08:48:46;;;;;;;6.10;1.02;;;;;;;12.11;100.00;101107.91;4994825;28;20057;-45
2023/09/16 08:51:19;;;;;;;;;;;;;;;12.08;100.00;101095.53;4995101;28;20061;-44
2023/09/16 08:53:50;;;;;;;4.60;1.25;;;;;;;12.07;100.00;101101.44;4994592;28;19980;-44
2023/09/16 08:56:18;;;;;;;2.97;0.70;;;;;;;12.10;100.00;101100.72;4994449;28;20066;-45
2023/09/16 08:58:46;;;;;;;4.15;0.80;;;;;;;12.12;100.00;101104.78;4994622;28;20100;-44
2023/09/16 09:01:17;;;;;;;3.42;0.88;;;;;;;12.14;100.00;101108.03;4994069;28;20046;-45
2023/09/16 09:03:45;;;;;;;3.58;0.90;;;;;;;12.17;100.00;101117.63;4995066;28;20112;-44
2023/09/16 09:06:13;;;;;;;6.38;1.73;;;;;;;12.18;100.00;101111.72;4994335;28;20050;-45
2023/09/16 09:08:55;;;;;;;5.13;1.08;;;;;;;12.19;100.00;101115.31;4994486;28;20043;-46
2023/09/16 09:11:24;;;;;;;2.20;1.02;;;;;;;12.22;100.00;101125.72;4981561;28;20487;-45
2023/09/16 09:13:52;;;;;;;2.70;1.10;;;;;;;12.26;100.00;101121.06;4994572;28;20144;-45
2023/09/16 09:16:21;;;;;;;4.30;1.33;;;;;;;12.28;100.00;101123.53;4994029;28;20049;-45
2023/09/16 09:18:52;;;;;;;10.77;2.05;;;;;;;12.28;100.00;101127.13;4994143;28;20042;-45
2023/09/16 09:21:19;;;;;;;11.75;1.15;;;;;;;12.29;100.00;101127.91;4994760;28;20046;-45
2023/09/16 09:23:46;;;;;;;5.60;1.13;;;;;;;12.31;100.00;101128.38;4994134;28;20129;-50
2023/09/16 09:26:14;;;;;;;3.38;1.08;;;;;;;12.34;100.00;101127.69;4994382;28;20051;-44
2023/09/16 09:28:47;;;;;;;6.25;1.52;;;;;;;12.35;100.00;101123.75;4993945;28;20061;-45
2023/09/16 09:31:15;;;;;;;6.13;1.15;;;;;;;12.34;100.00;101125.69;4993707;28;20057;-45
2023/09/16 09:33:44;;;;;;;3.53;0.80;;;;;;;12.36;100.00;101128.97;4990661;28;20496;-45
2023/09/16 09:36:14;;;;;;;5.70;1.10;;;;;;;12.39;100.00;101139.34;4990394;28;20491;-46
2023/09/16 09:38:43;;;;;;;6.60;1.73;;;;;;;12.41;100.00;101141.78;5004939;28;20050;-45
2023/09/16 09:41:10;;;;;;;5.45;1.33;;;;;;;12.40;100.00;101140.97;4993769;28;20042;-46
2023/09/16 09:43:38;;;;;;;6.97;1.23;;;;;;;12.40;100.00;101140.16;4993611;28;20054;-45
2023/09/16 09:46:05;;;;;;;4.63;1.30;;;;;;;12.42;100.00;101135.06;4996310;28;20042;-45
2023/09/16 09:48:35;;;;;;;2.90;1.17;;;;;;;12.45;100.00;101151.03;4995331;28;20077;-45
2023/09/16 09:51:02;;;;;;;3.95;0.77;;;;;;;12.44;100.00;101141.91;4993743;28;20084;-46
2023/09/16 09:53:31;;;;;;;6.47;1.38;;;;;;;12.46;100.00;101149.88;4993887;28;20133;-46
2023/09/16 09:55:59;;;;;;;11.32;1.42;;;;;;;12.45;100.00;101139.94;4999519;28;20089;-46
2023/09/16 09:58:26;;;;;;;4.70;1.23;;;;;;;12.43;100.00;101134.72;4991724;28;20078;-47
2023/09/16 10:00:53;;;;;;;4.82;1.35;;;;;;;12.42;100.00;101138.66;5005509;28;20047;-47
2023/09/16 10:03:22;;;;;;;6.28;1.90;;;;;;;12.43;100.00;101136.69;4991892;28;20042;-49
2023/09/16 10:05:50;;;;;;;10.43;3.83;;;;;;;12.43;100.00;101131.97;4987880;28;20812;-46
2023/09/16 10:08:17;;;;;;;7.03;1.20;;;;;;;12.46;100.00;101134.03;4993508;28;20070;-46
2023/09/16 10:10:48;;;;;;;4.22;1.05;;;;;;;12.49;100.00;101126.97;4994233;28;20074;-48
2023/09/16 10:13:16;;;;;;;9.00;2.43;;;;;;;12.51;100.00;101119.09;4987511;28;20039;-46
2023/09/16 10:15:43;;;;;;;9.82;1.50;;;;;;;12.55;100.00;101115.28;4982965;28;20058;-46
2023/09/16 10:18:12;;;;;;;3.80;0.93;;;;;;;12.58;100.00;101111.78;4987314;28;20074;-44
2023/09/16 10:20:43;;;;;;;5.68;1.10;;;;;;;12.59;100.00;101118.97;4983309;28;20096;-45
2023/09/16 10:23:10;;;;;;;10.25;1.30;;;;;;;12.61;100.00;101125.00;4993376;28;20465;-46
2023/09/16 10:25:38;;;;;;;6.03;0.98;;;;;;;12.65;100.00;101122.34;4978456;28;20054;-54
2023/09/16 10:28:08;;;;;;;4.30;0.82;;;;;;;12.64;100.00;101123.47;4990897;28;20039;-45
2023/09/16 10:30:36;;;;;;;4.25;1.20;;;;;;;12.66;100.00;101112.81;4983668;28;20047;-45
2023/09/16 10:33:06;;;;;;;7.03;1.50;;;;;;;12.68;100.00;101118.84;4990923;28;20538;-44
2023/09/16 10:35:37;;;;;;;4.90;1.02;;;;;;;12.69;100.00;101104.59;4988679;28;20046;-44
2023/09/16 10:38:06;;;;;;;3.42;1.23;;;;;;;12.72;100.00;101126.13;4979065;28;20094;-46
2023/09/16 10:40:34;;;;;;;4.50;0.80;;;;;;;12.74;100.00;101126.59;4988926;28;20046;-44
2023/09/16 10:43:05;;;;;;;6.13;1.60;;;;;;;12.77;100.00;101125.06;4990445;28;20500;-45
2023/09/16 10:45:32;;;;;;;4.07;1.25;;;;;;;12.76;100.00;101132.59;4990508;28;20105;-49
2023/09/16 10:48:01;;;;;;;4.28;1.00;;;;;;;12.78;100.00;101130.31;4986514;28;20085;-46
2023/09/16 10:50:36;;;;;;;6.30;1.65;;;;;;;12.77;100.00;101128.66;4990145;28;20050;-44
2023/09/16 10:53:21;;;;;;;4.70;0.95;;;;;;;12.78;100.00;101124.75;4991382;28;20486;-45
2023/09/16 10:56:04;;;;;;;2.55;1.17;;;;;;;12.81;100.00;101129.56;4980154;28;20939;-47
2023/09/16 10:58:35;;;;;;;;;;;;;;;12.80;100.00;101127.97;4989193;28;20081;-44
2023/09/16 11:01:06;;;;;;;4.05;0.65;;;;;;;12.84;100.00;101120.53;4988119;28;19926;-47
2023/09/16 11:03:37;;;;;;;1.98;0.68;;;;;;;12.92;100.00;101118.00;4988957;28;20435;-47
2023/09/16 11:06:05;;;;;;;3.67;1.30;;;;;;;13.02;100.00;101120.28;4984031;28;20049;-47
2023/09/16 11:08:32;;;;;;;3.67;1.33;;;;;;;13.06;100.00;101119.19;4990970;28;20483;-46
2023/09/16 11:11:00;;;;;;;8.50;1.20;;;;;;;13.06;100.00;101102.53;4982611;28;20047;-46
2023/09/16 11:13:30;;;;;;;2.70;0.60;;;;;;;13.06;100.00;101107.28;4987939;28;20129;-49
2023/09/16 11:15:58;;;;;;;4.13;0.75;;;;;;;13.06;100.00;101108.09;4987690;28;20057;-44
2023/09/16 11:18:27;;;;;;;13.35;2.15;;;;;;;13.11;100.00;101112.59;4990908;28;20053;-44
2023/09/16 11:20:55;;;;;;;1.48;0.60;;;;;;;13.13;100.00;101108.31;4995294;28;20072;-44